ADDS METAR Data INFO
IDs: Format: Raw Decoded Include TAF

Data at: 0409 UTC 11 Dec 2017

KE16 110355Z AUTO 35006KT 10SM CLR 08/02 A3022 RMK AO2 PWINO PNO
KE16 110335Z AUTO 36005KT 10SM CLR 09/02 A3022 RMK AO2 PWINO PNO
KE16 110315Z AUTO 33003KT 10SM CLR 10/01 A3022 RMK AO2 PWINO PNO
KE16 110255Z AUTO 36004KT 10SM CLR 10/01 A3022 RMK AO2 PWINO PNO
KE16 110235Z AUTO 31004KT 10SM CLR 12/00 A3021 RMK AO2 PWINO PNO
KE16 110215Z AUTO 31003KT 10SM CLR 12/00 A3021 RMK AO2 PWINO PNO
KE16 110155Z AUTO 32004KT 10SM CLR 13/00 A3021 RMK AO2 PWINO PNO
KE16 110135Z AUTO 32003KT 10SM CLR 14/00 A3021 RMK AO2 PWINO PNO
KE16 110115Z AUTO 33005KT 10SM CLR 15/00 A3020 RMK AO2 PWINO PNO
KE16 110055Z AUTO 34005KT 10SM CLR 14/00 A3020 RMK AO2 PWINO PNO
KE16 110035Z AUTO 33005KT 10SM CLR 17/00 A3020 RMK AO2 PWINO PNO
KE16 110015Z AUTO 34007KT 10SM CLR 18/00 A3020 RMK AO2 PWINO PNO
KE16 102355Z AUTO 33007KT 10SM CLR 19/00 A3020 RMK AO2 PWINO PNO
KE16 102335Z AUTO 33008KT 10SM CLR 19/00 A3020 RMK AO2 PWINO PNO
KE16 102315Z AUTO 33008KT 10SM CLR 20/00 A3020 RMK AO2 PWINO PNO
KE16 102255Z AUTO 34007KT 10SM CLR 20/00 A3020 RMK AO2 PWINO PNO
KE16 102235Z AUTO 33008KT 10SM CLR 20/00 A3020 RMK AO2 PWINO PNO
KE16 102215Z AUTO 33009KT 10SM CLR 20/M01 A3020 RMK AO2 PWINO PNO
KE16 102155Z AUTO 34008KT 10SM CLR 20/00 A3021 RMK AO2 PWINO PNO
KE16 102135Z AUTO 34009KT 10SM CLR 20/00 A3021 RMK AO2 PWINO PNO
KE16 102115Z AUTO 33006KT 10SM CLR 20/01 A3022 RMK AO2 PWINO PNO
KE16 102055Z AUTO 32006KT 10SM CLR 19/00 A3023 RMK AO2 PWINO PNO
KE16 102035Z AUTO 34007KT 10SM CLR 19/01 A3024 RMK AO2 PWINO PNO
KE16 102015Z AUTO 33005KT 10SM CLR 18/00 A3025 RMK AO2 PWINO PNO
KE16 101955Z AUTO 32004KT 10SM CLR 18/00 A3026 RMK AO2 PWINO PNO
KE16 101935Z AUTO 32004KT 10SM CLR 17/00 A3027 RMK AO2 PWINO PNO
KE16 101915Z AUTO 31003KT 10SM CLR 15/01 A3028 RMK AO2 PWINO PNO
KE16 101855Z AUTO 36003KT 10SM CLR 14/00 A3030 RMK AO2 PWINO PNO
KE16 101835Z AUTO 33003KT 10SM CLR 13/00 A3030 RMK AO2 PWINO PNO
KE16 101815Z AUTO 00000KT 10SM CLR 12/00 A3031 RMK AO2 PWINO PNO
KE16 101755Z AUTO 00000KT 10SM CLR 10/01 A3032 RMK AO2 PWINO PNO
KE16 101735Z AUTO 00000KT 10SM CLR 08/02 A3032 RMK AO2 PWINO PNO
KE16 101715Z AUTO 00000KT 10SM CLR 07/01 A3032 RMK AO2 PWINO PNO
KE16 101655Z AUTO 00000KT 10SM CLR 06/01 A3032 RMK AO2 PWINO PNO
KE16 101635Z AUTO 00000KT 10SM CLR 04/00 A3032 RMK AO2 PWINO PNO
KE16 101615Z AUTO 00000KT 10SM CLR 02/00 A3031 RMK AO2 PWINO PNO
KE16 101555Z AUTO 00000KT 10SM CLR 01/M01 A3031 RMK AO2 PWINO PNO
KE16 101535Z AUTO 33003KT 10SM CLR 00/M02 A3030 RMK AO2 PWINO PNO
KE16 101515Z AUTO 00000KT 10SM CLR 00/M02 A3030 RMK AO2 PWINO PNO
KE16 101455Z AUTO 00000KT 10SM CLR 00/M02 A3030 RMK AO2 PWINO PNO
KE16 101435Z AUTO 00000KT 10SM CLR 00/M02 A3030 RMK AO2 PWINO PNO
KE16 101415Z AUTO 00000KT 10SM CLR 00/M01 A3030 RMK AO2 PWINO PNO
KE16 101355Z AUTO 00000KT 10SM CLR 00/M01 A3029 RMK AO2 PWINO PNO
KE16 101335Z AUTO 00000KT 10SM CLR 00/M01 A3029 RMK AO2 PWINO PNO
KE16 101315Z AUTO 00000KT 10SM CLR 01/M01 A3029 RMK AO2 PWINO PNO
KE16 101255Z AUTO 00000KT 10SM CLR 01/M01 A3029 RMK AO2 PWINO PNO
KE16 101235Z AUTO 36003KT 10SM CLR 00/M01 A3029 RMK AO2 PWINO PNO
KE16 101215Z AUTO 00000KT 10SM CLR 00/M01 A3029 RMK AO2 PWINO PNO
KE16 101155Z AUTO 34003KT 10SM CLR 01/00 A3029 RMK AO2 PWINO PNO
KE16 101135Z AUTO 36003KT 10SM CLR 01/M01 A3029 RMK AO2 PWINO PNO
KE16 101115Z AUTO 33003KT 10SM CLR 01/M01 A3029 RMK AO2 PWINO PNO
KE16 101055Z AUTO 00000KT 10SM CLR 01/00 A3030 RMK AO2 PWINO PNO
KE16 101035Z AUTO 35004KT 10SM CLR 02/00 A3030 RMK AO2 PWINO PNO
KE16 101010Z AUTO 33003KT 10SM CLR 02/00 A3030 RMK AO2 PWINO PNO
KE16 100955Z AUTO 01004KT 10SM CLR 02/00 A3030 RMK AO2 PWINO PNO
KE16 100935Z AUTO 35003KT 10SM CLR 02/00 A3030 RMK AO2 PWINO PNO
KE16 100915Z AUTO 35003KT 10SM CLR 02/00 A3030 RMK AO2 PWINO PNO
KE16 100855Z AUTO 33003KT 10SM CLR 03/00 A3030 RMK AO2 PWINO PNO
KE16 100835Z AUTO 36003KT 10SM CLR 03/00 A3030 RMK AO2 PWINO PNO
KE16 100815Z AUTO 00000KT 10SM CLR 04/01 A3031 RMK AO2 PWINO PNO
KE16 100755Z AUTO 00000KT 10SM CLR 03/00 A3031 RMK AO2 PWINO PNO
KE16 100735Z AUTO 36003KT 10SM CLR 04/01 A3031 RMK AO2 PWINO PNO
KE16 100715Z AUTO 34004KT 10SM CLR 03/00 A3031 RMK AO2 PWINO PNO
KE16 100655Z AUTO 35006KT 10SM CLR 04/01 A3031 RMK AO2 PWINO PNO
KE16 100635Z AUTO 35005KT 10SM CLR 04/01 A3031 RMK AO2 PWINO PNO
KE16 100615Z AUTO 00000KT 10SM CLR 05/02 A3031 RMK AO2 PWINO PNO
KE16 100555Z AUTO 36003KT 10SM CLR 05/01 A3030 RMK AO2 PWINO PNO
KE16 100535Z AUTO 35004KT 10SM CLR 05/02 A3030 RMK AO2 PWINO PNO
KE16 100515Z AUTO 01003KT 10SM CLR 07/02 A3031 RMK AO2 PWINO PNO
KE16 100455Z AUTO 00000KT 10SM CLR 07/02 A3030 RMK AO2 PWINO PNO
KE16 100435Z AUTO 01003KT 10SM CLR 07/02 A3030 RMK AO2 PWINO PNO
KE16 100415Z AUTO 33003KT 10SM FEW070 08/02 A3029 RMK AO2 PWINO PNO
KE16 100355Z AUTO 00000KT 10SM OVC070 09/02 A3029 RMK AO2 PWINO PNO
KE16 100335Z AUTO 00000KT 10SM OVC070 09/02 A3029 RMK AO2 PWINO PNO
KE16 100315Z AUTO 00000KT 10SM OVC070 10/02 A3029 RMK AO2 PWINO PNO
KE16 100255Z AUTO 00000KT 10SM SCT047 OVC070 11/02 A3028 RMK AO2 PWINO PNO
KE16 100235Z AUTO 00000KT 10SM OVC047 12/02 A3028 RMK AO2 PWINO PNO
KE16 100215Z AUTO 32004KT 10SM OVC049 13/02 A3027 RMK AO2 PWINO PNO
KE16 100155Z AUTO 31004KT 10SM OVC049 13/02 A3027 RMK AO2 PWINO PNO
KE16 100135Z AUTO 32005KT 10SM BKN047 OVC065 14/02 A3027 RMK AO2 PWINO PNO
KE16 100115Z AUTO 32006KT 10SM BKN065 15/01 A3026 RMK AO2 PWINO PNO
KE16 100055Z AUTO 33006KT 10SM CLR 15/00 A3026 RMK AO2 PWINO PNO
KE16 100035Z AUTO 32008KT 10SM CLR 16/01 A3026 RMK AO2 PWINO PNO
KE16 100010Z AUTO 32009KT 10SM CLR 17/01 A3025 RMK AO2 PWINO PNO
KE16 092355Z AUTO 33007KT 10SM CLR 17/00 A3025 RMK AO2 PWINO PNO
KE16 092335Z AUTO 32008KT 10SM CLR 17/00 A3025 RMK AO2 PWINO PNO
KE16 092315Z AUTO 33009KT 10SM CLR 18/00 A3024 RMK AO2 PWINO PNO
KE16 092255Z AUTO 34008KT 10SM CLR 18/01 A3024 RMK AO2 PWINO PNO
KE16 092235Z AUTO 10SM CLR 18/00 A3024 RMK AO2 PWINO PNO
KE16 092215Z AUTO 32007KT 10SM CLR 19/00 A3025 RMK AO2 PWINO PNO
KE16 092155Z AUTO 33007KT 10SM CLR 19/01 A3025 RMK AO2 PWINO PNO
KE16 092135Z AUTO 33010KT 10SM CLR 19/00 A3026 RMK AO2 PWINO PNO
KE16 092115Z AUTO 34010KT 10SM CLR 19/02 A3026 RMK AO2 PWINO PNO
KE16 092055Z AUTO 34009KT 10SM CLR 19/02 A3027 RMK AO2 PWINO PNO
KE16 092035Z AUTO 33008KT 10SM CLR 18/02 A3028 RMK AO2 PWINO PNO
KE16 092015Z AUTO 33007KT 10SM CLR 17/01 A3028 RMK AO2 PWINO PNO
KE16 091955Z AUTO 33006KT 10SM CLR 17/01 A3029 RMK AO2 PWINO PNO
KE16 091935Z AUTO 32004KT 10SM CLR 17/01 A3031 RMK AO2 PWINO PNO
KE16 091915Z AUTO 00000KT 10SM CLR 15/00 A3032 RMK AO2 PWINO PNO
KE16 091855Z AUTO 32005KT 9SM CLR 14/02 A3033 RMK AO2 PWINO PNO
KE16 091835Z AUTO 32004KT 10SM CLR 13/02 A3034 RMK AO2 PWINO PNO
KE16 091815Z AUTO 34003KT 10SM CLR 11/01 A3035 RMK AO2 PWINO PNO
KE16 091755Z AUTO 00000KT 10SM CLR 10/01 A3035 RMK AO2 PWINO PNO
KE16 091735Z AUTO 00000KT 10SM CLR 08/02 A3035 RMK AO2 PWINO PNO
KE16 091715Z AUTO 00000KT 10SM CLR 07/02 A3035 RMK AO2 PWINO PNO
KE16 091655Z AUTO 00000KT 10SM CLR 05/01 A3035 RMK AO2 PWINO PNO
KE16 091635Z AUTO 00000KT 10SM CLR 04/00 A3035 RMK AO2 PWINO PNO
KE16 091615Z AUTO 00000KT 10SM CLR 04/01 A3035 RMK AO2 PWINO PNO